EDT,Max TemperatureF,Mean TemperatureF,Min TemperatureF,Max Dew PointF,MeanDew PointF,Min DewpointF,Max Humidity, Mean Humidity, Min Humidity, Max Sea Level PressureIn, Mean Sea Level PressureIn, Min Sea Level PressureIn, Max VisibilityMiles, Mean VisibilityMiles, Min VisibilityMiles, Max Wind SpeedMPH, Mean Wind SpeedMPH, Max Gust SpeedMPH,PrecipitationIn, CloudCover, Events, WindDirDegrees
2013-4-1,69,56,43,57,47,36,100,67,33,30.08,29.98,29.90,10,6,0,17,6,23,0.00,3,Fog,329
2013-4-2,60,51,41,37,26,21,65,44,23,30.25,30.18,30.09,10,10,10,14,8,17,0.00,5,,357
2013-4-3,58,51,44,29,23,20,46,35,24,30.24,30.20,30.15,10,10,10,18,9,23,T,6,,25
2013-4-4,49,46,42,45,43,40,100,92,83,30.17,30.06,29.99,10,4,1,10,5,14,1.28,8,Rain,37
2013-4-5,68,56,44,45,41,34,93,61,29,30.11,30.04,30.00,10,10,10,16,6,18,0.02,5,Rain,13
2013-4-6,73,56,39,42,39,37,100,65,29,30.19,30.12,30.05,10,10,10,16,4,22,0.00,3,,178
2013-4-7,76,61,46,50,45,41,93,62,31,30.17,30.09,30.03,10,10,10,17,5,22,0.00,4,,166
2013-4-8,77,66,54,55,52,50,93,67,40,30.10,30.05,30.01,10,10,10,18,5,24,0.00,4,,192
2013-4-9,82,67,51,57,54,51,100,70,39,30.18,30.09,30.03,10,10,10,16,3,21,0.00,3,,170
2013-4-10,84,70,56,57,55,52,93,65,37,30.09,30.00,29.87,10,10,10,16,5,21,0.00,2,,169
2013-4-11,81,71,61,66,61,55,87,72,56,29.89,29.74,29.61,10,7,0,33,7,48,1.26,7,Fog-Rain-Thunderstorm,190
2013-4-12,68,60,51,63,49,40,93,67,40,29.97,29.79,29.63,10,10,10,18,8,24,0.01,4,Rain-Thunderstorm,258
2013-4-13,77,61,45,48,45,44,100,67,33,30.08,30.01,29.97,10,10,10,14,2,17,0.00,3,,8
2013-4-14,64,57,49,57,52,46,100,80,60,30.04,29.99,29.94,10,8,2,16,2,24,0.05,6,Rain,58
2013-4-15,78,67,56,68,61,56,100,84,67,30.09,30.00,29.93,10,9,5,13,4,16,0.00,5,,177
2013-4-16,80,69,57,67,63,57,100,81,62,30.22,30.15,30.10,10,10,7,12,5,18,0.06,5,Rain,183
2013-4-17,85,74,62,64,61,32,100,76,51,30.21,30.14,30.06,10,9,0,9,5,13,1.81,6,Fog-Rain-Thunderstorm,119
2013-4-18,82,70,58,62,58,54,97,67,37,30.05,29.97,29.79,10,10,10,20,7,29,0.00,4,Fog,164
2013-4-19,74,60,45,64,50,33,87,69,50,30.13,29.86,29.67,10,8,4,21,11,32,1.17,6,Rain-Thunderstorm,253
2013-4-20,65,51,37,36,31,26,92,58,24,30.28,30.21,30.15,10,10,10,17,5,22,0.00,1,,1
2013-4-21,70,57,43,42,36,33,82,55,28,30.38,30.30,30.22,10,10,10,12,5,17,0.00,4,,46
2013-4-22,73,59,44,49,42,37,93,61,29,30.33,30.24,30.13,10,10,10,13,2,17,0.00,1,,183
2013-4-23,75,62,48,50,44,36,80,58,36,30.22,30.13,30.03,10,10,10,13,5,17,0.00,3,,174
2013-4-24,71,61,50,61,52,39,87,74,60,30.24,30.08,30.01,10,10,6,21,9,29,0.06,7,Rain,219
2013-4-25,70,56,41,39,34,25,76,48,19,30.36,30.30,30.24,10,10,10,15,7,20,0.00,2,,352
2013-4-26,76,59,42,52,40,33,89,57,25,30.39,30.34,30.26,10,9,6,15,5,18,0.59,4,Rain-Thunderstorm,2
2013-4-27,60,57,53,55,53,51,100,90,80,30.37,30.25,30.11,10,7,3,14,5,17,0.90,8,Fog-Rain,26
2013-4-28,62,60,57,58,56,54,100,90,80,30.12,30.04,29.96,10,5,1,20,5,25,1.87,8,Rain-Thunderstorm,171
2013-4-29,73,65,56,57,55,51,93,71,49,30.04,29.99,29.93,10,9,6,7,2,10,0.00,6,,164
2013-4-30,79,66,53,58,54,50,100,69,37,30.08,30.01,29.96,10,8,0,13,2,16,0.00,4,Fog,184